createdAt,value
2022-08-17T00:02:45.011Z,4.6
2022-08-17T00:08:31.622Z,4.8
2022-08-17T00:14:17.074Z,5.6
2022-08-17T00:20:00.664Z,4.8
2022-08-17T00:25:44.590Z,4.3
2022-08-17T00:31:27.920Z,5
2022-08-17T00:37:11.449Z,5.3
2022-08-17T00:42:55.032Z,5.3
2022-08-17T00:48:38.467Z,4.6
2022-08-17T00:54:24.811Z,4.3
2022-08-17T01:00:11.499Z,5.9
2022-08-17T01:05:57.923Z,5.6
2022-08-17T01:11:41.674Z,4.9
2022-08-17T01:17:25.246Z,4.9
2022-08-17T01:23:08.591Z,5
2022-08-17T01:28:57.820Z,4.9
2022-08-17T01:34:51.974Z,5.1
2022-08-17T01:40:36.988Z,4.9
2022-08-17T01:46:23.416Z,5.2
2022-08-17T01:52:12.150Z,5.5
2022-08-17T01:57:55.635Z,5.9
2022-08-17T02:03:40.200Z,5.2
2022-08-17T02:09:30.811Z,5.4
2022-08-17T02:15:18.266Z,5.3
2022-08-17T02:21:02.029Z,6.5
2022-08-17T02:26:46.207Z,6
2022-08-17T02:32:31.178Z,6.4
2022-08-17T02:38:14.483Z,5.1
2022-08-17T02:43:58.052Z,5.7
2022-08-17T02:49:42.623Z,6.7
2022-08-17T02:55:31.555Z,6.3
2022-08-17T03:01:15.097Z,6.7
2022-08-17T03:06:59.679Z,5.8
2022-08-17T03:12:44.442Z,5.7
2022-08-17T03:18:29.062Z,6.2
2022-08-17T03:24:13.347Z,6.5
2022-08-17T03:30:01.546Z,5.8
2022-08-17T03:35:45.085Z,6.9
2022-08-17T03:41:28.469Z,7.5
2022-08-17T03:47:12.102Z,7.3
2022-08-17T03:52:55.566Z,9.4
2022-08-17T03:58:38.853Z,9.8
2022-08-17T04:04:29.619Z,11.4
2022-08-17T04:10:13.607Z,12.8
2022-08-17T04:15:56.927Z,10.3
2022-08-17T04:21:40.208Z,11
2022-08-17T04:27:23.629Z,9.2
2022-08-17T04:33:10.187Z,9.2
2022-08-17T04:38:53.425Z,9.6
2022-08-17T04:44:40.659Z,9
2022-08-17T04:50:24.186Z,9.5
2022-08-17T04:56:07.692Z,8.3
2022-08-17T05:01:55.052Z,11.3
2022-08-17T05:07:38.636Z,11.9
2022-08-17T05:13:23.363Z,9.6
2022-08-17T05:19:06.925Z,10.2
2022-08-17T05:24:58.782Z,9.4
2022-08-17T05:30:50.931Z,9.8
2022-08-17T05:36:45.525Z,8.9
2022-08-17T05:42:29.089Z,9.3
2022-08-17T05:48:14.514Z,9.1
2022-08-17T05:54:03.265Z,8.9
2022-08-17T05:59:52.218Z,8
2022-08-17T06:05:44.247Z,9.6
2022-08-17T06:11:38.244Z,8.8
2022-08-17T06:17:23.804Z,8.2
2022-08-17T06:23:10.875Z,8.4
2022-08-17T06:28:55.435Z,8.4
2022-08-17T06:34:40.232Z,10.8
2022-08-17T06:40:31.086Z,11.9
2022-08-17T06:46:19.166Z,9.4
2022-08-17T06:52:04.827Z,9.8
2022-08-17T06:57:50.200Z,12.4
2022-08-17T07:03:36.778Z,12.8
2022-08-17T07:09:22.959Z,16.3
2022-08-17T07:15:10.509Z,15.4
2022-08-17T07:20:57.330Z,15.6
2022-08-17T07:26:41.619Z,12.3
2022-08-17T07:32:27.269Z,13.1
2022-08-17T07:38:28.177Z,13.2
2022-08-17T07:44:17.723Z,13.7
2022-08-17T07:50:01.203Z,12.3
2022-08-17T07:55:44.574Z,25.1
2022-08-17T08:01:42.709Z,27.7
2022-08-17T08:07:31.056Z,18.2
2022-08-17T08:13:17.251Z,15.1
2022-08-17T08:19:02.358Z,13
2022-08-17T08:24:53.031Z,9.2
2022-08-17T08:30:37.296Z,10.9
2022-08-17T08:36:56.505Z,9.4
2022-08-17T08:42:36.594Z,11
2022-08-17T08:48:53.553Z,10.1
2022-08-17T08:54:38.207Z,9.9
2022-08-17T09:00:22.572Z,8.7
2022-08-17T09:06:37.949Z,8.3
2022-08-17T09:12:25.627Z,9.2
2022-08-17T09:18:59.482Z,8.6
2022-08-17T09:24:23.674Z,12.1
2022-08-17T09:30:09.030Z,8.5
2022-08-17T09:35:56.626Z,9.8
2022-08-17T09:41:51.091Z,10.3
2022-08-17T09:47:37.048Z,9.3
2022-08-17T09:53:20.492Z,9.1
2022-08-17T09:59:13.786Z,10.6
2022-08-17T10:05:01.480Z,9.7
2022-08-17T10:10:58.546Z,8.6
2022-08-17T10:16:46.710Z,7.6
2022-08-17T10:22:40.866Z,6.9
2022-08-17T10:28:32.454Z,7
2022-08-17T10:34:36.170Z,6.8
2022-08-17T10:40:35.962Z,5.9
2022-08-17T10:46:33.507Z,7.1
2022-08-17T10:52:28.037Z,6.6
2022-08-17T10:58:22.633Z,5.4
2022-08-17T11:04:10.500Z,7.5
2022-08-17T11:10:02.552Z,7.5
2022-08-17T11:15:54.408Z,7
2022-08-17T11:21:51.050Z,9.4
2022-08-17T11:27:35.677Z,7
2022-08-17T11:33:31.783Z,7
2022-08-17T11:39:25.468Z,6.2
2022-08-17T11:45:31.998Z,5.9
2022-08-17T11:51:19.230Z,8.5
2022-08-17T11:57:03.974Z,8
2022-08-17T12:02:51.177Z,7.2
2022-08-17T12:08:35.386Z,8
2022-08-17T12:15:06.188Z,6.7
2022-08-17T12:20:28.822Z,7.2
2022-08-17T12:26:14.431Z,8.4
2022-08-17T12:31:58.424Z,9.2
2022-08-17T12:37:46.654Z,8.2
2022-08-17T12:43:30.801Z,10
2022-08-17T12:49:22.487Z,8.6
2022-08-17T12:55:07.558Z,8.8
2022-08-17T13:00:53.388Z,8.2
2022-08-17T13:06:38.142Z,7.5
2022-08-17T13:12:26.636Z,7.2
2022-08-17T13:18:15.716Z,7.7
2022-08-17T13:24:03.882Z,6.5
2022-08-17T13:29:55.888Z,5.8
2022-08-17T13:35:53.176Z,7.1
2022-08-17T13:41:40.318Z,6.7
2022-08-17T13:47:23.984Z,6.6
2022-08-17T13:53:12.586Z,6.8
2022-08-17T13:59:00.103Z,8
2022-08-17T14:04:45.195Z,8.9
2022-08-17T14:10:30.784Z,8
2022-08-17T14:16:16.146Z,8.4
2022-08-17T14:22:00.722Z,9.1
2022-08-17T14:27:55.461Z,6.1
2022-08-17T14:33:40.299Z,7.1
2022-08-17T14:39:23.623Z,7.9
2022-08-17T14:45:27.157Z,8.6
2022-08-17T14:51:07.940Z,9
2022-08-17T14:57:22.344Z,7.4
2022-08-17T15:02:57.847Z,8.7
2022-08-17T15:08:41.408Z,7.2
2022-08-17T15:14:25.559Z,7.8
2022-08-17T15:20:16.900Z,7.2
2022-08-17T15:26:00.922Z,6.6
2022-08-17T15:31:44.575Z,7.5
2022-08-17T15:37:27.986Z,7.1
2022-08-17T15:43:13.230Z,8.9
2022-08-17T15:48:57.676Z,7.3
2022-08-17T15:54:47.556Z,7.1
2022-08-17T16:00:30.968Z,8.1
2022-08-17T16:06:20.507Z,7.2
2022-08-17T16:12:08.782Z,7.3
2022-08-17T16:17:52.904Z,7.3
2022-08-17T16:23:36.286Z,7
2022-08-17T16:29:19.594Z,11
2022-08-17T16:35:02.851Z,7.1
2022-08-17T16:40:46.166Z,6.9
2022-08-17T16:46:29.691Z,6.7
2022-08-17T16:52:14.070Z,7.4
2022-08-17T16:58:02.368Z,6.6
2022-08-17T17:03:46.834Z,7.9
2022-08-17T17:09:31.495Z,6.4
2022-08-17T17:15:23.006Z,6.2
2022-08-17T17:21:07.896Z,6.2
2022-08-17T17:27:09.114Z,6.7
2022-08-17T17:32:55.012Z,7.9
2022-08-17T17:38:42.916Z,8.7
2022-08-17T17:44:28.204Z,8.2
2022-08-17T17:50:12.213Z,8.2
2022-08-17T17:56:02.270Z,7.3
2022-08-17T18:01:49.139Z,8.1
2022-08-17T18:07:36.970Z,8.4
2022-08-17T18:13:29.983Z,9.2
2022-08-17T18:19:13.791Z,10.4
2022-08-17T18:24:58.008Z,12.1
2022-08-17T18:30:41.365Z,12.3
2022-08-17T18:36:33.422Z,11.6
2022-08-17T18:42:22.472Z,11.9
2022-08-17T18:48:07.312Z,12.8
2022-08-17T18:53:55.518Z,13
2022-08-17T18:59:43.755Z,12.7
2022-08-17T19:05:36.432Z,12.3
2022-08-17T19:11:23.183Z,12.6
2022-08-17T19:17:08.675Z,13.4
2022-08-17T19:22:56.895Z,12.9
2022-08-17T19:28:51.430Z,14.9
2022-08-17T19:34:37.343Z,12.5
2022-08-17T19:40:52.578Z,13.4
2022-08-17T19:46:48.773Z,13
2022-08-17T19:52:42.724Z,13.1
2022-08-17T19:58:31.954Z,13.2
2022-08-17T20:04:22.146Z,13.1
2022-08-17T20:10:07.990Z,14.6
2022-08-17T20:15:51.286Z,11.4
2022-08-17T20:21:38.304Z,9.3
2022-08-17T20:27:32.462Z,8.5
2022-08-17T20:33:20.762Z,8.2
2022-08-17T20:39:04.274Z,8
2022-08-17T20:44:48.110Z,8.9
2022-08-17T20:50:34.680Z,7.5
2022-08-17T20:56:23.123Z,7.6
2022-08-17T21:02:21.031Z,7.3
2022-08-17T21:08:09.743Z,7.8
2022-08-17T21:14:04.394Z,8.6
2022-08-17T21:20:11.315Z,7.1
2022-08-17T21:26:05.668Z,7.5
2022-08-17T21:31:51.007Z,7.2
2022-08-17T21:37:39.782Z,7.2
2022-08-17T21:43:27.966Z,7.7
2022-08-17T21:49:18.205Z,7.3
2022-08-17T21:55:03.049Z,7.7
2022-08-17T22:00:46.989Z,8
2022-08-17T22:06:32.635Z,7.9
2022-08-17T22:12:19.375Z,7.8
2022-08-17T22:18:03.211Z,7.8
2022-08-17T22:23:51.576Z,7.9
2022-08-17T22:29:59.447Z,7.6
2022-08-17T22:35:44.001Z,8.4
2022-08-17T22:41:39.128Z,7.6
2022-08-17T22:47:33.247Z,8.2
2022-08-17T22:53:21.246Z,8.5
2022-08-17T22:59:04.536Z,7.9
2022-08-17T23:04:49.132Z,8.3
2022-08-17T23:10:33.157Z,7.8
2022-08-17T23:16:16.590Z,7.7
2022-08-17T23:22:01.111Z,8.7
2022-08-17T23:27:45.734Z,7.8
2022-08-17T23:33:31.222Z,8
2022-08-17T23:39:24.782Z,8.3
2022-08-17T23:45:08.442Z,9.1
2022-08-17T23:50:51.867Z,7.8
2022-08-17T23:56:35.255Z,8.2
